Time;durP1;ratioP1;P1;durP2;ratioP2;P2;SDS_P1;SDS_P2;PMS_P1;PMS_P2;Temp;Humidity;BMP_temperature;BMP_pressure;BME280_temperature;BME280_humidity;BME280_pressure;Samples;Min_cycle;Max_cycle;Signal;HPM_P1;HPM_P2
2022/07/07 00:00:41;;;;;;;3.67;2.53;;;;;;;22.13;100.00;101249.75;2072398;28;20671;-68
2022/07/07 00:01:41;;;;;;;3.43;2.60;;;;;;;22.13;100.00;101247.72;2069085;28;20194;-68
2022/07/07 00:02:42;;;;;;;4.43;2.57;;;;;;;22.15;100.00;101247.97;2065643;28;20200;-68
2022/07/07 00:03:42;;;;;;;4.70;2.53;;;;;;;21.35;100.00;101123.16;2071788;28;20166;-68
2022/07/07 00:04:43;;;;;;;4.93;2.90;;;;;;;22.13;100.00;101247.72;2073189;28;20550;-68
2022/07/07 00:05:44;;;;;;;4.50;2.57;;;;;;;21.98;100.00;101232.13;2072414;28;20638;-68
2022/07/07 00:06:44;;;;;;;4.77;2.60;;;;;;;22.16;100.00;101254.41;2072574;28;20197;-68
2022/07/07 00:07:45;;;;;;;2.97;2.50;;;;;;;21.24;100.00;101112.50;2072557;28;20232;-68
2022/07/07 00:08:47;;;;;;;3.40;2.73;;;;;;;21.28;100.00;101110.25;2072746;28;20332;-68
2022/07/07 00:09:47;;;;;;;3.70;2.83;;;;;;;22.03;100.00;101246.31;2072536;28;20639;-68
2022/07/07 00:10:48;;;;;;;5.93;2.53;;;;;;;21.87;100.00;101221.50;2072477;28;20189;-68
2022/07/07 00:11:48;;;;;;;4.17;3.00;;;;;;;22.02;100.00;101247.59;2072182;28;20180;-68
2022/07/07 00:12:49;;;;;;;4.60;2.93;;;;;;;22.06;100.00;101247.38;2071097;28;20185;-68
2022/07/07 00:13:49;;;;;;;3.83;2.60;;;;;;;22.06;100.00;101250.19;2063895;28;20174;-68
2022/07/07 00:14:50;;;;;;;3.77;2.63;;;;;;;22.07;100.00;101249.69;2071613;28;20188;-68
2022/07/07 00:15:50;;;;;;;3.97;2.93;;;;;;;22.04;100.00;101247.84;2072580;28;20205;-68
2022/07/07 00:16:51;;;;;;;6.20;2.70;;;;;;;22.07;100.00;101249.69;2071731;28;20711;-68
2022/07/07 00:17:51;;;;;;;3.73;2.60;;;;;;;22.06;100.00;101247.38;2071815;28;20200;-68
2022/07/07 00:18:52;;;;;;;3.93;2.63;;;;;;;22.06;100.00;101245.31;2072593;28;20181;-68
2022/07/07 00:19:52;;;;;;;4.97;2.60;;;;;;;21.99;100.00;101242.13;2072026;28;20186;-68
2022/07/07 00:20:53;;;;;;;3.40;2.70;;;;;;;22.05;100.00;101238.13;2072528;28;20186;-68
2022/07/07 00:21:54;;;;;;;3.40;2.70;;;;;;;22.07;100.00;101243.28;2072738;28;20209;-68
2022/07/07 00:22:54;;;;;;;4.43;2.70;;;;;;;22.09;100.00;101240.72;2072187;28;20675;-68
2022/07/07 00:23:55;;;;;;;2.80;2.30;;;;;;;22.08;100.00;101239.97;2071889;28;20715;-68
2022/07/07 00:24:56;;;;;;;2.40;2.20;;;;;;;22.11;100.00;101238.19;2072448;28;20193;-68
2022/07/07 00:25:56;;;;;;;4.17;2.60;;;;;;;22.03;100.00;101240.66;2072010;28;20237;-68
2022/07/07 00:26:57;;;;;;;4.87;2.53;;;;;;;21.37;100.00;101143.94;2071584;28;20781;-68
2022/07/07 00:27:57;;;;;;;2.80;2.50;;;;;;;21.99;100.00;101237.28;2069979;28;20177;-68
2022/07/07 00:28:58;;;;;;;2.90;2.47;;;;;;;21.99;100.00;101242.13;2071538;28;20192;-68
2022/07/07 00:29:59;;;;;;;5.17;2.53;;;;;;;21.96;100.00;101241.09;2072921;28;20651;-69
2022/07/07 00:31:00;;;;;;;3.57;2.20;;;;;;;21.99;100.00;101248.56;2072329;28;20198;-68
2022/07/07 00:32:00;;;;;;;4.13;2.43;;;;;;;22.01;100.00;101233.97;2068081;28;20264;-68
2022/07/07 00:33:00;;;;;;;4.27;2.37;;;;;;;22.01;100.00;101236.78;2069158;28;20201;-68
2022/07/07 00:34:01;;;;;;;3.67;2.40;;;;;;;22.02;100.00;101238.34;2072338;28;20197;-68
2022/07/07 00:35:02;;;;;;;3.03;2.40;;;;;;;21.94;100.00;101231.56;2072398;28;20195;-68
2022/07/07 00:36:03;;;;;;;2.90;2.50;;;;;;;21.97;100.00;101244.69;2070600;28;20655;-68
2022/07/07 00:37:04;;;;;;;2.33;2.13;;;;;;;21.94;100.00;101235.16;2064939;28;20181;-68
2022/07/07 00:38:04;;;;;;;3.77;2.13;;;;;;;21.94;100.00;101237.22;2072896;28;20503;-68
2022/07/07 00:39:05;;;;;;;4.97;2.73;;;;;;;21.93;100.00;101242.09;2064678;28;20201;-67
2022/07/07 00:40:07;;;;;;;4.03;2.30;;;;;;;21.96;100.00;101246.72;2066087;28;20194;-68
2022/07/07 00:41:08;;;;;;;4.20;2.37;;;;;;;21.94;100.00;101238.00;2072142;28;20444;-68
2022/07/07 00:42:13;;;;;;;2.90;2.47;;;;;;;21.96;100.00;101240.31;2067666;28;20505;-68
2022/07/07 00:43:14;;;;;;;4.43;2.50;;;;;;;21.52;100.00;101184.13;2067034;28;20256;-68
2022/07/07 00:44:14;;;;;;;4.70;2.60;;;;;;;21.98;100.00;101238.56;2071652;28;20539;-68
2022/07/07 00:45:15;;;;;;;5.63;2.30;;;;;;;21.92;100.00;101240.56;2072310;28;20510;-68
2022/07/07 00:46:15;;;;;;;4.47;2.50;;;;;;;21.86;100.00;101238.94;2072266;28;20184;-67
2022/07/07 00:47:18;;;;;;;6.37;2.50;;;;;;;21.90;100.00;101233.84;2072710;28;20567;-68
2022/07/07 00:48:19;;;;;;;2.90;2.60;;;;;;;21.92;100.00;101237.72;2072814;28;20193;-68
2022/07/07 00:49:21;;;;;;;4.83;2.40;;;;;;;21.20;100.00;101125.28;2071919;28;20440;-68
2022/07/07 00:50:22;;;;;;;2.70;2.30;;;;;;;21.94;100.00;101240.03;2071461;28;20460;-68
2022/07/07 00:51:22;;;;;;;3.70;2.43;;;;;;;21.89;100.00;101235.88;2073974;28;20480;-68
2022/07/07 00:52:23;;;;;;;3.13;2.63;;;;;;;21.89;100.00;101240.75;2069884;28;20226;-68
2022/07/07 00:53:24;;;;;;;4.67;2.60;;;;;;;21.90;100.00;101233.84;2065464;28;20205;-68
2022/07/07 00:54:25;;;;;;;5.03;2.47;;;;;;;21.86;100.00;101236.09;2067428;28;20189;-68
2022/07/07 00:55:26;;;;;;;4.83;2.63;;;;;;;21.84;100.00;101238.63;2073647;28;20211;-68
2022/07/07 00:56:26;;;;;;;2.60;2.40;;;;;;;21.84;100.00;101250.69;2073633;28;20432;-68
2022/07/07 00:57:26;;;;;;;2.43;2.20;;;;;;;21.80;100.00;101246.56;2073272;28;20201;-68
2022/07/07 00:58:27;;;;;;;2.57;2.20;;;;;;;21.14;100.00;101149.81;2074117;28;20829;-68
2022/07/07 00:59:28;;;;;;;4.67;2.40;;;;;;;21.81;100.00;101248.09;2073860;28;20659;-68
2022/07/07 01:00:28;;;;;;;2.90;2.50;;;;;;;21.09;100.00;101133.59;2073530;28;20205;-68
2022/07/07 01:01:30;;;;;;;2.90;2.60;;;;;;;21.32;100.00;101178.47;2074048;28;20182;-68
2022/07/07 01:02:31;;;;;;;5.30;2.80;;;;;;;21.77;100.00;101241.88;2073421;28;20205;-68
2022/07/07 01:03:33;;;;;;;4.97;2.80;;;;;;;21.40;100.00;101192.94;2073498;28;20189;-68
2022/07/07 01:04:34;;;;;;;3.10;2.70;;;;;;;21.67;100.00;101237.63;2074659;28;20420;-68
2022/07/07 01:05:36;;;;;;;2.97;2.50;;;;;;;21.67;100.00;101248.91;2066191;28;20425;-68
2022/07/07 01:06:37;;;;;;;4.50;2.30;;;;;;;21.65;100.00;101243.00;2073229;28;20485;-68
2022/07/07 01:07:38;;;;;;;3.80;2.50;;;;;;;21.63;100.00;101249.13;2073595;28;20862;-68
2022/07/07 01:08:39;;;;;;;4.80;2.33;;;;;;;21.65;100.00;101252.22;2074025;28;20456;-68
2022/07/07 01:09:41;;;;;;;4.27;2.50;;;;;;;21.65;100.00;101246.56;2073091;28;20193;-68
2022/07/07 01:10:45;;;;;;;4.73;2.30;;;;;;;21.66;100.00;101241.72;2073202;28;20248;-68
2022/07/07 01:11:51;;;;;;;3.80;2.60;;;;;;;21.68;100.00;101251.28;2073945;28;20431;-68
2022/07/07 01:12:52;;;;;;;5.10;2.40;;;;;;;21.62;100.00;101246.78;2072788;28;20420;-68
2022/07/07 01:13:52;;;;;;;5.27;2.67;;;;;;;21.67;100.00;101249.69;2073285;28;20444;-68
2022/07/07 01:14:53;;;;;;;3.73;2.60;;;;;;;20.78;100.00;101117.25;2074365;28;20204;-69
2022/07/07 01:15:54;;;;;;;4.00;2.40;;;;;;;21.64;100.00;101247.09;2073732;28;20204;-68
2022/07/07 01:16:54;;;;;;;6.10;2.47;;;;;;;21.62;100.00;101247.59;2074051;28;20569;-68
2022/07/07 01:17:55;;;;;;;2.60;2.00;;;;;;;21.28;100.00;101205.34;2073583;28;20352;-68
2022/07/07 01:18:55;;;;;;;2.43;2.20;;;;;;;21.55;100.00;101238.75;2073820;28;20200;-68
2022/07/07 01:19:56;;;;;;;2.13;1.93;;;;;;;21.51;100.00;101266.41;2070484;28;20201;-68
2022/07/07 01:21:00;;;;;;;4.47;2.10;;;;;;;21.44;100.00;101241.44;2067496;28;20617;-68
2022/07/07 01:22:05;;;;;;;4.40;2.10;;;;;;;21.53;100.00;101246.94;2073394;28;21003;-68
2022/07/07 01:23:06;;;;;;;2.73;2.30;;;;;;;21.45;100.00;101226.84;2072838;28;20902;-68
2022/07/07 01:24:07;;;;;;;3.67;2.07;;;;;;;21.52;100.00;101246.16;2073023;28;20917;-68
2022/07/07 01:25:08;;;;;;;2.40;2.00;;;;;;;21.52;100.00;101243.34;2073648;28;20193;-68
2022/07/07 01:26:08;;;;;;;2.83;2.10;;;;;;;21.47;100.00;101235.59;2073739;28;20246;-68
2022/07/07 01:27:10;;;;;;;2.53;2.20;;;;;;;21.50;100.00;101251.50;2073874;28;20193;-68
2022/07/07 01:28:10;;;;;;;6.07;2.47;;;;;;;21.52;100.00;101245.38;2073288;28;20189;-68
2022/07/07 01:29:11;;;;;;;4.07;2.30;;;;;;;21.50;100.00;101245.88;2073708;28;20954;-68
2022/07/07 01:30:12;;;;;;;2.77;2.23;;;;;;;21.50;100.00;101245.88;2071130;28;20584;-68
2022/07/07 01:31:13;;;;;;;5.50;2.40;;;;;;;21.50;100.00;101248.69;2067062;28;20205;-68
2022/07/07 01:32:15;;;;;;;5.27;2.30;;;;;;;21.51;100.00;101247.44;2073353;28;20982;-69
2022/07/07 01:33:16;;;;;;;3.03;2.20;;;;;;;21.48;100.00;101239.97;2073653;28;20428;-68
2022/07/07 01:34:16;;;;;;;4.87;2.43;;;;;;;21.54;100.00;101246.44;2073867;28;20822;-68
2022/07/07 01:35:17;;;;;;;2.87;2.17;;;;;;;21.49;100.00;101260.47;2073520;28;20498;-68
2022/07/07 01:36:17;;;;;;;5.40;2.40;;;;;;;21.50;100.00;101251.50;2073691;28;20702;-68
2022/07/07 01:37:20;;;;;;;2.97;2.00;;;;;;;21.45;100.00;101246.56;2073601;28;20205;-68
2022/07/07 01:38:21;;;;;;;2.60;2.07;;;;;;;21.45;100.00;101263.50;2073256;28;20236;-68
2022/07/07 01:39:21;;;;;;;4.13;2.50;;;;;;;21.27;100.00;101215.84;2073667;28;20420;-68
2022/07/07 01:40:22;;;;;;;3.03;2.03;;;;;;;21.46;100.00;101239.69;2073347;28;20735;-67
2022/07/07 01:41:22;;;;;;;3.63;2.33;;;;;;;21.45;100.00;101246.56;2073640;28;20221;-68
2022/07/07 01:42:23;;;;;;;5.47;2.30;;;;;;;21.41;100.00;101246.03;2073588;28;20202;-68
2022/07/07 01:43:23;;;;;;;4.53;2.23;;;;;;;21.41;100.00;101251.66;2072479;28;20231;-68
2022/07/07 01:44:24;;;;;;;7.93;2.50;;;;;;;21.36;100.00;101269.28;2072704;28;20200;-68
2022/07/07 01:45:24;;;;;;;7.73;2.63;;;;;;;20.90;100.00;101183.78;2073524;28;20331;-68
2022/07/07 01:46:25;;;;;;;4.70;2.43;;;;;;;21.36;100.00;101248.75;2073749;28;20197;-69
2022/07/07 01:47:25;;;;;;;5.67;2.37;;;;;;;21.31;100.00;101275.63;2073814;28;20667;-68
2022/07/07 01:48:26;;;;;;;5.10;2.50;;;;;;;21.23;100.00;101245.50;2073467;28;20205;-67
2022/07/07 01:49:29;;;;;;;2.73;2.30;;;;;;;21.29;100.00;101252.00;2073379;28;20177;-68
2022/07/07 01:50:29;;;;;;;2.90;2.37;;;;;;;21.22;100.00;101246.75;2074046;28;20258;-68
2022/07/07 01:51:31;;;;;;;5.63;2.73;;;;;;;21.03;100.00;101225.75;2073524;28;20930;-68
2022/07/07 01:52:31;;;;;;;3.83;2.30;;;;;;;21.26;100.00;101255.78;2066272;28;20205;-68
2022/07/07 01:53:32;;;;;;;6.37;2.43;;;;;;;21.23;100.00;101251.91;2070581;28;20873;-68
2022/07/07 01:54:33;;;;;;;6.10;2.50;;;;;;;21.21;100.00;101257.25;2073482;28;20254;-68
2022/07/07 01:55:34;;;;;;;4.50;2.23;;;;;;;21.21;100.00;101248.03;2073216;28;20200;-67
2022/07/07 01:56:34;;;;;;;5.80;2.23;;;;;;;21.21;100.00;101248.03;2073498;28;20459;-68
2022/07/07 01:57:35;;;;;;;5.57;2.37;;;;;;;21.21;100.00;101259.31;2073145;28;20178;-68
2022/07/07 01:58:36;;;;;;;5.33;2.47;;;;;;;21.20;100.00;101252.91;2073228;28;20180;-68
2022/07/07 01:59:38;;;;;;;3.90;2.10;;;;;;;21.18;100.00;101249.78;2073817;28;20239;-68
2022/07/07 02:00:38;;;;;;;4.87;2.17;;;;;;;21.17;100.00;101253.88;2073541;28;20205;-68
2022/07/07 02:01:39;;;;;;;2.63;2.10;;;;;;;21.16;100.00;101252.31;2073224;28;20455;-68
2022/07/07 02:02:40;;;;;;;2.30;2.10;;;;;;;21.10;100.00;101251.47;2066772;28;20256;-68
2022/07/07 02:03:40;;;;;;;4.50;2.37;;;;;;;21.08;100.00;101251.16;2068846;28;20224;-68
2022/07/07 02:04:41;;;;;;;3.93;2.50;;;;;;;21.07;100.00;101243.97;2072732;28;20201;-68
2022/07/07 02:05:41;;;;;;;6.10;2.70;;;;;;;21.07;100.00;101240.38;2072582;28;20217;-68
2022/07/07 02:06:42;;;;;;;5.40;3.10;;;;;;;20.15;100.00;101100.38;2073039;28;20184;-68
2022/07/07 02:07:45;;;;;;;5.47;2.40;;;;;;;21.11;100.00;101255.03;2067117;28;20555;-68
2022/07/07 02:08:46;;;;;;;6.27;2.53;;;;;;;21.05;100.00;101240.88;2073436;28;20193;-68
2022/07/07 02:09:46;;;;;;;6.90;3.00;;;;;;;21.07;100.00;101249.63;2073309;28;20462;-68
2022/07/07 02:12:06;;;;;;;6.13;2.30;;;;;;;21.06;100.00;101258.56;2066351;28;20199;-67
2022/07/07 02:13:07;;;;;;;4.47;2.13;;;;;;;20.23;100.00;101138.94;2071168;28;20520;-68
2022/07/07 02:14:07;;;;;;;3.87;2.20;;;;;;;21.02;100.00;101257.97;2072991;28;20207;-68
2022/07/07 02:15:08;;;;;;;3.20;2.20;;;;;;;21.02;100.00;101260.78;2069988;28;20625;-68
2022/07/07 02:16:10;;;;;;;2.60;2.03;;;;;;;20.97;100.00;101267.91;2065231;28;20205;-68
2022/07/07 02:17:10;;;;;;;2.43;1.67;;;;;;;20.98;100.00;101258.19;2066596;28;20265;-68
2022/07/07 02:18:11;;;;;;;2.63;1.97;;;;;;;21.00;100.00;101260.50;2073246;28;21052;-68
2022/07/07 02:19:11;;;;;;;2.27;1.93;;;;;;;20.95;100.00;101264.03;2073699;28;20179;-68
2022/07/07 02:20:11;;;;;;;2.57;2.10;;;;;;;20.85;100.00;101245.66;2073284;28;20201;-68
2022/07/07 02:21:14;;;;;;;3.47;1.97;;;;;;;20.97;100.00;101258.66;2073111;28;20197;-68
2022/07/07 02:22:15;;;;;;;7.33;2.00;;;;;;;20.51;100.00;101188.00;2072773;28;20224;-68
2022/07/07 02:23:15;;;;;;;4.37;2.07;;;;;;;20.76;100.00;101226.03;2072798;28;21165;-68
2022/07/07 02:24:16;;;;;;;2.87;2.00;;;;;;;20.99;100.00;101261.78;2070430;28;20202;-68
2022/07/07 02:25:17;;;;;;;2.97;1.73;;;;;;;20.98;100.00;101261.00;2066648;28;20255;-68
2022/07/07 02:26:17;;;;;;;3.13;2.00;;;;;;;20.67;100.00;101217.72;2073277;28;20171;-68
2022/07/07 02:27:18;;;;;;;2.97;1.83;;;;;;;20.92;100.00;101254.50;2073179;28;20277;-68
2022/07/07 02:28:23;;;;;;;3.17;1.80;;;;;;;20.91;100.00;101249.34;2072626;28;20287;-68
2022/07/07 02:29:23;;;;;;;3.77;2.20;;;;;;;20.99;100.00;101256.91;2073213;28;20700;-68
2022/07/07 02:30:24;;;;;;;3.50;1.90;;;;;;;20.97;100.00;101255.84;2072679;28;20487;-68
2022/07/07 02:31:24;;;;;;;5.33;1.93;;;;;;;20.89;100.00;101258.31;2068284;28;20248;-68
2022/07/07 02:32:25;;;;;;;2.10;1.73;;;;;;;20.90;100.00;101265.50;2067811;28;20656;-68
2022/07/07 02:33:26;;;;;;;4.90;2.20;;;;;;;20.80;100.00;101261.22;2066614;28;20706;-69
2022/07/07 02:34:28;;;;;;;4.97;2.23;;;;;;;20.89;100.00;101268.78;2072683;28;20197;-68
2022/07/07 02:35:29;;;;;;;3.60;2.00;;;;;;;20.83;100.00;101265.84;2073034;28;20809;-68
2022/07/07 02:36:29;;;;;;;5.30;2.03;;;;;;;20.67;100.00;101235.38;2073726;28;20435;-68
2022/07/07 02:37:29;;;;;;;3.97;1.90;;;;;;;20.51;100.00;101215.38;2065375;28;20237;-68
2022/07/07 02:38:30;;;;;;;2.97;2.13;;;;;;;20.84;100.00;101258.19;2071742;28;20186;-68
2022/07/07 02:39:31;;;;;;;6.03;2.00;;;;;;;20.65;100.00;101237.13;2072753;28;20236;-68
2022/07/07 02:40:31;;;;;;;5.50;2.27;;;;;;;20.81;100.00;101261.97;2072955;28;20190;-68
2022/07/07 02:41:32;;;;;;;3.73;2.10;;;;;;;20.79;100.00;101261.69;2072848;28;20272;-68
2022/07/07 02:42:33;;;;;;;2.13;1.90;;;;;;;20.75;100.00;101256.25;2072540;28;20216;-68
2022/07/07 02:43:34;;;;;;;4.57;1.80;;;;;;;20.76;100.00;101260.63;2072604;28;20170;-68
2022/07/07 02:44:34;;;;;;;4.60;2.00;;;;;;;20.79;100.00;101256.84;2073820;28;20221;-68
2022/07/07 02:45:35;;;;;;;2.53;2.00;;;;;;;20.80;100.00;101261.22;2073248;28;20428;-68
2022/07/07 02:46:35;;;;;;;2.53;2.00;;;;;;;20.77;100.00;101259.34;2073002;28;20282;-68
2022/07/07 02:47:36;;;;;;;2.23;1.80;;;;;;;20.74;100.00;101251.09;2073133;28;20190;-68
2022/07/07 02:48:37;;;;;;;3.57;2.20;;;;;;;20.76;100.00;101266.25;2073107;28;20276;-68
2022/07/07 02:49:38;;;;;;;3.47;1.83;;;;;;;20.36;100.00;101201.31;2072620;28;20194;-68
2022/07/07 02:50:39;;;;;;;3.70;2.10;;;;;;;20.73;100.00;101258.75;2070643;28;20978;-68
2022/07/07 02:51:40;;;;;;;6.97;2.30;;;;;;;20.72;100.00;101264.91;2066105;28;20177;-68
2022/07/07 02:52:40;;;;;;;4.80;2.10;;;;;;;20.68;100.00;101262.25;2072521;28;20986;-68
2022/07/07 02:53:41;;;;;;;5.47;2.30;;;;;;;20.29;100.00;101206.56;2072361;28;20304;-68
2022/07/07 02:54:41;;;;;;;4.23;2.10;;;;;;;20.66;100.00;101262.00;2072543;28;20216;-68
2022/07/07 02:55:43;;;;;;;2.30;1.90;;;;;;;20.64;100.00;101264.53;2072964;28;20615;-68
2022/07/07 02:56:43;;;;;;;4.50;2.00;;;;;;;20.62;100.00;101260.63;2073099;28;20591;-68
2022/07/07 02:57:44;;;;;;;3.63;1.80;;;;;;;20.54;100.00;101251.81;2072933;28;20474;-68
2022/07/07 02:58:44;;;;;;;4.23;1.90;;;;;;;20.52;100.00;101257.13;2073133;28;20201;-68
2022/07/07 02:59:45;;;;;;;4.20;1.87;;;;;;;20.45;100.00;101249.06;2072708;28;20746;-68
2022/07/07 03:00:49;;;;;;;2.67;2.03;;;;;;;20.54;100.00;101265.88;2072635;28;20591;-68
2022/07/07 03:01:50;;;;;;;4.37;1.93;;;;;;;20.55;100.00;101258.97;2072611;28;20182;-67
2022/07/07 03:02:51;;;;;;;3.13;2.23;;;;;;;20.58;100.00;101262.88;2071748;28;20527;-68
2022/07/07 03:03:52;;;;;;;4.57;2.00;;;;;;;20.59;100.00;101259.56;2071384;28;20208;-68
2022/07/07 03:04:52;;;;;;;4.43;2.10;;;;;;;20.58;100.00;101262.88;2073183;28;20440;-67
2022/07/07 03:05:53;;;;;;;4.73;1.70;;;;;;;20.54;100.00;101256.66;2072987;28;20200;-68
2022/07/07 03:06:53;;;;;;;3.63;2.00;;;;;;;20.47;100.00;101246.53;2073009;28;20197;-68
2022/07/07 03:07:54;;;;;;;2.77;1.93;;;;;;;20.12;100.00;101183.72;2072514;28;20265;-68
2022/07/07 03:08:55;;;;;;;2.57;1.90;;;;;;;20.53;100.00;101260.72;2072294;28;20204;-68
2022/07/07 03:09:55;;;;;;;3.10;1.83;;;;;;;20.49;100.00;101246.06;2072111;28;20424;-68
2022/07/07 03:10:56;;;;;;;4.23;1.63;;;;;;;20.45;100.00;101245.47;2065206;28;20202;-67
2022/07/07 03:11:56;;;;;;;2.20;1.70;;;;;;;20.53;100.00;101257.91;2064650;28;20214;-68
2022/07/07 03:12:57;;;;;;;3.30;1.90;;;;;;;20.13;100.00;101209.84;2070269;28;20201;-68
2022/07/07 03:14:15;;;;;;;4.20;2.07;;;;;;;20.55;100.00;101255.38;2072127;28;20237;-67
2022/07/07 03:15:16;;;;;;;6.27;2.23;;;;;;;20.57;100.00;101261.31;2067032;28;20222;-68
2022/07/07 03:16:16;;;;;;;2.80;1.70;;;;;;;19.51;100.00;101091.03;2069618;28;20502;-68
2022/07/07 03:17:17;;;;;;;4.60;1.80;;;;;;;19.70;100.00;101135.38;2072484;28;20684;-68
2022/07/07 03:18:17;;;;;;;4.27;1.87;;;;;;;20.57;100.00;101256.44;2072760;28;27283;-68
2022/07/07 03:19:18;;;;;;;4.20;1.67;;;;;;;20.58;100.00;101260.06;2072589;28;20186;-68
2022/07/07 03:20:19;;;;;;;7.10;2.00;;;;;;;20.61;100.00;101261.88;2072366;28;20267;-68
2022/07/07 03:21:20;;;;;;;2.63;1.90;;;;;;;20.61;100.00;101256.25;2073478;28;20186;-67
2022/07/07 03:22:20;;;;;;;3.03;1.67;;;;;;;20.56;100.00;101256.94;2065037;28;20494;-68
2022/07/07 03:23:21;;;;;;;4.33;1.60;;;;;;;20.54;100.00;101260.25;2064247;28;20208;-68
2022/07/07 03:24:21;;;;;;;3.73;1.77;;;;;;;20.57;100.00;101255.69;2069747;28;20202;-68
2022/07/07 03:25:22;;;;;;;3.73;1.60;;;;;;;20.57;100.00;101256.44;2072698;28;20316;-68
2022/07/07 03:26:22;;;;;;;3.50;1.77;;;;;;;20.58;100.00;101262.88;2072775;28;20248;-68
2022/07/07 03:27:23;;;;;;;2.43;1.73;;;;;;;20.56;100.00;101251.28;2072728;28;20181;-68
2022/07/07 03:28:23;;;;;;;7.90;2.23;;;;;;;20.61;100.00;101245.78;2072731;28;20184;-68
2022/07/07 03:29:24;;;;;;;2.37;1.63;;;;;;;20.31;100.00;101209.69;2073170;28;20253;-68
2022/07/07 03:30:24;;;;;;;5.73;1.77;;;;;;;20.69;100.00;101260.25;2071835;28;20730;-68
2022/07/07 03:31:25;;;;;;;6.60;1.83;;;;;;;20.68;100.00;101259.44;2072033;28;20215;-67
2022/07/07 03:32:25;;;;;;;4.13;2.07;;;;;;;20.72;100.00;101264.91;2072327;28;20193;-68
2022/07/07 03:33:26;;;;;;;3.60;1.70;;;;;;;20.72;100.00;101268.47;2068314;28;20198;-68
2022/07/07 03:34:26;;;;;;;2.70;1.73;;;;;;;20.69;100.00;101268.69;2067730;28;20200;-68
2022/07/07 03:35:27;;;;;;;2.57;1.83;;;;;;;20.68;100.00;101267.91;2072811;28;20308;-68
2022/07/07 03:36:27;;;;;;;2.23;1.63;;;;;;;20.67;100.00;101266.34;2072499;28;20877;-68
2022/07/07 03:37:29;;;;;;;2.90;1.87;;;;;;;20.69;100.00;101265.88;2073178;28;20663;-68
2022/07/07 03:38:29;;;;;;;2.17;1.47;;;;;;;19.63;100.00;101096.38;2065091;28;20235;-67
2022/07/07 03:39:30;;;;;;;2.67;1.40;;;;;;;20.47;100.00;101228.88;2071146;28;20459;-68
2022/07/07 03:40:30;;;;;;;2.50;2.00;;;;;;;20.78;100.00;101265.78;2072849;28;20272;-68
2022/07/07 03:41:31;;;;;;;3.57;2.20;;;;;;;20.78;100.00;101271.41;2072831;28;20284;-68
2022/07/07 03:42:31;;;;;;;2.43;1.70;;;;;;;20.70;100.00;101256.94;2069022;28;20687;-68
2022/07/07 03:43:32;;;;;;;3.50;1.80;;;;;;;20.46;100.00;101239.38;2064180;28;20166;-68
2022/07/07 03:44:33;;;;;;;2.23;1.70;;;;;;;20.34;100.00;101206.66;2065715;28;20557;-68
2022/07/07 03:45:33;;;;;;;2.63;1.80;;;;;;;20.74;100.00;101282.88;2073161;28;20177;-67
2022/07/07 03:46:34;;;;;;;2.07;1.50;;;;;;;20.74;100.00;101270.81;2073247;28;20186;-68
2022/07/07 03:47:34;;;;;;;2.37;1.80;;;;;;;20.77;100.00;101276.25;2072505;28;20726;-67
2022/07/07 03:48:35;;;;;;;3.30;1.67;;;;;;;20.78;100.00;101268.59;2072840;28;20193;-68
2022/07/07 03:49:35;;;;;;;3.43;1.53;;;;;;;20.79;100.00;101279.38;2072766;28;20197;-68
2022/07/07 03:50:36;;;;;;;2.40;1.63;;;;;;;20.80;100.00;101274.50;2072093;28;20694;-68
2022/07/07 03:51:36;;;;;;;5.83;1.77;;;;;;;20.81;100.00;101285.28;2072625;28;20197;-68
2022/07/07 03:52:37;;;;;;;2.73;1.60;;;;;;;20.83;100.00;101282.00;2071957;28;20655;-68
2022/07/07 03:53:37;;;;;;;3.40;1.93;;;;;;;20.82;100.00;101281.19;2072051;28;20557;-68
2022/07/07 03:54:38;;;;;;;3.23;1.60;;;;;;;20.37;100.00;101208.50;2073306;28;20178;-68
2022/07/07 03:55:38;;;;;;;2.87;2.00;;;;;;;20.81;100.00;101282.47;2072502;28;20668;-68
2022/07/07 03:56:40;;;;;;;5.30;2.03;;;;;;;20.83;100.00;101282.00;2072570;28;20268;-68
2022/07/07 03:57:41;;;;;;;5.47;2.00;;;;;;;20.80;100.00;101280.91;2072431;28;20193;-68
2022/07/07 03:58:41;;;;;;;2.87;1.70;;;;;;;20.02;100.00;101158.97;2072671;28;20448;-68
2022/07/07 03:59:42;;;;;;;4.50;1.90;;;;;;;20.90;100.00;101284.44;2069628;28;20194;-68
2022/07/07 04:00:42;;;;;;;5.57;2.10;;;;;;;20.82;100.00;101274.81;2065730;28;20537;-68
2022/07/07 04:01:44;;;;;;;4.33;1.60;;;;;;;20.88;100.00;101284.13;2071751;28;20243;-68
2022/07/07 04:02:45;;;;;;;3.90;1.90;;;;;;;20.93;100.00;101289.09;2064500;28;20170;-68
2022/07/07 04:03:45;;;;;;;4.03;1.80;;;;;;;20.92;100.00;101285.50;2071914;28;20424;-68
2022/07/07 04:04:46;;;;;;;2.13;1.80;;;;;;;20.96;100.00;101286.09;2072544;28;20268;-68
2022/07/07 04:05:46;;;;;;;4.07;1.93;;;;;;;20.71;100.00;101246.44;2066773;28;20623;-68
2022/07/07 04:06:47;;;;;;;4.87;1.93;;;;;;;20.99;100.00;101290.72;2069065;28;20204;-68
2022/07/07 04:07:47;;;;;;;4.83;1.63;;;;;;;20.97;100.00;101287.63;2071341;28;20213;-67
2022/07/07 04:08:49;;;;;;;2.73;1.90;;;;;;;20.98;100.00;101286.34;2072682;28;20188;-68
2022/07/07 04:09:49;;;;;;;7.13;1.70;;;;;;;21.02;100.00;101288.97;2072213;28;20169;-68
2022/07/07 04:10:50;;;;;;;3.70;1.80;;;;;;;21.02;100.00;101283.34;2070773;28;20431;-68
2022/07/07 04:11:50;;;;;;;3.07;1.90;;;;;;;21.01;100.00;101285.41;2064099;28;20178;-68
2022/07/07 04:12:51;;;;;;;2.73;1.60;;;;;;;20.68;100.00;101234.09;2071382;28;20190;-68
2022/07/07 04:13:51;;;;;;;3.40;1.90;;;;;;;21.05;100.00;101285.19;2071972;28;20196;-68
2022/07/07 04:14:52;;;;;;;2.90;2.10;;;;;;;21.07;100.00;101286.25;2072560;28;20228;-68
2022/07/07 04:15:52;;;;;;;3.80;2.10;;;;;;;21.10;100.00;101285.28;2071984;28;20185;-68
2022/07/07 04:16:53;;;;;;;4.63;1.80;;;;;;;20.77;100.00;101239.63;2072484;28;20265;-68
2022/07/07 04:17:53;;;;;;;2.37;1.90;;;;;;;20.85;100.00;101240.81;2072202;28;20173;-68
2022/07/07 04:18:54;;;;;;;2.37;1.97;;;;;;;21.17;100.00;101290.50;2072466;28;20188;-68
2022/07/07 04:19:54;;;;;;;3.20;1.70;;;;;;;21.20;100.00;101291.56;2065572;28;20200;-69
2022/07/07 04:20:55;;;;;;;2.10;1.73;;;;;;;21.19;100.00;101287.97;2070805;28;20193;-68
2022/07/07 04:21:55;;;;;;;2.37;1.80;;;;;;;21.18;100.00;101280.03;2070972;28;20263;-68
2022/07/07 04:22:56;;;;;;;7.03;2.10;;;;;;;20.43;100.00;101167.16;2070354;28;20276;-67
2022/07/07 04:23:57;;;;;;;2.43;1.87;;;;;;;21.25;100.00;101290.88;2071428;28;20197;-68
2022/07/07 04:24:57;;;;;;;3.33;1.70;;;;;;;21.26;100.00;101289.63;2071246;28;21000;-68
2022/07/07 04:25:58;;;;;;;2.43;1.40;;;;;;;20.98;100.00;101244.09;2069244;28;20360;-68
2022/07/07 04:26:58;;;;;;;2.80;1.80;;;;;;;21.35;100.00;101295.91;2071092;28;20185;-68
2022/07/07 04:27:59;;;;;;;3.27;1.63;;;;;;;21.40;100.00;101294.44;2072123;28;20240;-67
2022/07/07 04:28:59;;;;;;;4.10;1.50;;;;;;;21.26;100.00;101270.66;2071686;28;20220;-68
2022/07/07 04:30:00;;;;;;;2.10;1.60;;;;;;;21.47;100.00;101285.56;2072005;28;20217;-67
2022/07/07 04:31:00;;;;;;;2.00;1.70;;;;;;;20.98;100.00;101215.16;2069063;28;20205;-68
2022/07/07 04:32:01;;;;;;;2.40;1.63;;;;;;;21.50;100.00;101291.00;2070561;28;20181;-68
2022/07/07 04:33:01;;;;;;;3.77;1.90;;;;;;;21.55;100.00;101284.66;2070604;28;20575;-68
2022/07/07 04:34:04;;;;;;;4.17;1.67;;;;;;;21.59;100.00;101290.09;2071788;28;20557;-68
2022/07/07 04:35:05;;;;;;;4.03;1.60;;;;;;;21.32;100.00;101242.53;2070732;28;20209;-68
2022/07/07 04:36:06;;;;;;;2.87;1.60;;;;;;;20.90;100.00;101172.53;2071582;28;20428;-67
2022/07/07 04:37:06;;;;;;;2.97;1.60;;;;;;;21.23;100.00;101214.50;2069426;28;20948;-68
2022/07/07 04:38:07;;;;;;;3.80;1.80;;;;;;;21.66;100.00;101273.53;2071937;28;20289;-68
2022/07/07 04:39:08;;;;;;;3.53;1.67;;;;;;;21.83;100.00;101291.47;2071855;28;20194;-68
2022/07/07 04:40:09;;;;;;;2.50;1.90;;;;;;;21.84;100.00;101293.03;2068936;28;20252;-67
2022/07/07 04:41:10;;;;;;;3.17;1.90;;;;;;;21.86;100.00;101293.28;2071230;28;20917;-68